sensor_id;sensor_type;location;lat;lon;timestamp;pressure;altitude;pressure_sealevel;temperature;humidity
62011;BME280;47967;51.756;10.174;2023-02-21T05:02:59;99820.09;;;10.01;80.69
62011;BME280;47967;51.756;10.174;2023-02-21T05:07:01;99813.16;;;10.14;80.53
62011;BME280;47967;51.756;10.174;2023-02-21T05:11:04;99805.09;;;10.20;80.01
62011;BME280;47967;51.756;10.174;2023-02-21T05:15:09;99796.19;;;10.20;79.88
62011;BME280;47967;51.756;10.174;2023-02-21T05:19:18;99807.78;;;10.20;80.01
62011;BME280;47967;51.756;10.174;2023-02-21T05:23:27;99805.59;;;10.02;80.78
62011;BME280;47967;51.756;10.174;2023-02-21T05:27:35;99809.13;;;10.03;80.48
62011;BME280;47967;51.756;10.174;2023-02-21T05:31:58;99799.28;;;10.17;80.58
62011;BME280;47967;51.756;10.174;2023-02-21T05:36:25;99810.16;;;10.02;80.85
62011;BME280;47967;51.756;10.174;2023-02-21T05:40:28;99808.34;;;10.09;80.91
62011;BME280;47967;51.756;10.174;2023-02-21T05:44:30;99815.59;;;10.08;81.00
62011;BME280;47967;51.756;10.174;2023-02-21T05:48:33;99814.63;;;10.16;80.22
62011;BME280;47967;51.756;10.174;2023-02-21T05:52:37;99815.88;;;10.20;79.97
62011;BME280;47967;51.756;10.174;2023-02-21T05:56:40;99824.72;;;10.07;79.44
62011;BME280;47967;51.756;10.174;2023-02-21T06:00:43;99828.34;;;10.21;79.00
62011;BME280;47967;51.756;10.174;2023-02-21T06:04:46;99826.66;;;10.20;79.05
62011;BME280;47967;51.756;10.174;2023-02-21T06:08:50;99826.19;;;10.10;78.72
62011;BME280;47967;51.756;10.174;2023-02-21T06:12:53;99832.94;;;10.28;78.32
62011;BME280;47967;51.756;10.174;2023-02-21T06:16:55;99837.84;;;10.17;78.59
62011;BME280;47967;51.756;10.174;2023-02-21T06:20:58;99834.66;;;10.35;78.08
62011;BME280;47967;51.756;10.174;2023-02-21T06:25:02;99846.47;;;10.34;77.81
62011;BME280;47967;51.756;10.174;2023-02-21T06:29:05;99849.56;;;10.31;77.54
62011;BME280;47967;51.756;10.174;2023-02-21T06:33:07;99844.16;;;10.03;78.26
62011;BME280;47967;51.756;10.174;2023-02-21T06:37:10;99848.53;;;10.04;78.39
62011;BME280;47967;51.756;10.174;2023-02-21T06:41:15;99845.44;;;10.07;78.63
62011;BME280;47967;51.756;10.174;2023-02-21T06:45:18;99855.84;;;9.88;78.69
62011;BME280;47967;51.756;10.174;2023-02-21T06:49:21;99857.88;;;10.08;78.55
62011;BME280;47967;51.756;10.174;2023-02-21T06:53:23;99863.16;;;10.16;77.96
62011;BME280;47967;51.756;10.174;2023-02-21T06:57:27;99860.66;;;10.15;77.79
62011;BME280;47967;51.756;10.174;2023-02-21T07:01:30;99864.75;;;10.10;78.71
62011;BME280;47967;51.756;10.174;2023-02-21T07:05:33;99866.81;;;10.08;78.67
62011;BME280;47967;51.756;10.174;2023-02-21T07:09:38;99865.47;;;9.98;78.46
62011;BME280;47967;51.756;10.174;2023-02-21T07:13:46;99871.44;;;9.93;79.32
62011;BME280;47967;51.756;10.174;2023-02-21T07:17:48;99872.59;;;10.05;79.22
62011;BME280;47967;51.756;10.174;2023-02-21T07:21:51;99875.03;;;10.00;78.96
62011;BME280;47967;51.756;10.174;2023-02-21T07:25:54;99880.09;;;10.10;78.60
62011;BME280;47967;51.756;10.174;2023-02-21T07:29:58;99875.91;;;10.29;78.12
62011;BME280;47967;51.756;10.174;2023-02-21T07:34:00;99884.78;;;10.23;78.21
62011;BME280;47967;51.756;10.174;2023-02-21T07:38:04;99892.88;;;10.23;77.92
62011;BME280;47967;51.756;10.174;2023-02-21T07:42:06;99893.84;;;10.37;77.86
62011;BME280;47967;51.756;10.174;2023-02-21T07:46:11;99894.19;;;10.34;77.68
62011;BME280;47967;51.756;10.174;2023-02-21T07:50:14;99897.63;;;10.43;77.45
62011;BME280;47967;51.756;10.174;2023-02-21T07:54:17;99908.41;;;10.43;77.35
62011;BME280;47967;51.756;10.174;2023-02-21T07:58:20;99914.81;;;10.20;78.06
62011;BME280;47967;51.756;10.174;2023-02-21T08:02:24;99918.28;;;10.14;78.77
62011;BME280;47967;51.756;10.174;2023-02-21T08:06:26;99931.84;;;10.42;78.35
62011;BME280;47967;51.756;10.174;2023-02-21T08:10:29;99922.19;;;10.33;78.60
62011;BME280;47967;51.756;10.174;2023-02-21T08:14:31;99928.75;;;10.23;78.99
62011;BME280;47967;51.756;10.174;2023-02-21T08:18:35;99937.94;;;10.29;78.95
62011;BME280;47967;51.756;10.174;2023-02-21T08:22:38;99940.94;;;10.41;78.64
62011;BME280;47967;51.756;10.174;2023-02-21T08:26:40;99941.44;;;10.30;79.00
62011;BME280;47967;51.756;10.174;2023-02-21T08:30:45;99940.94;;;10.41;78.71
62011;BME280;47967;51.756;10.174;2023-02-21T08:34:49;99926.19;;;10.65;78.37
62011;BME280;47967;51.756;10.174;2023-02-21T08:38:52;99923.72;;;10.70;77.47
62011;BME280;47967;51.756;10.174;2023-02-21T08:42:55;99918.41;;;10.77;77.08
62011;BME280;47967;51.756;10.174;2023-02-21T08:46:58;99925.25;;;11.15;76.09
62011;BME280;47967;51.756;10.174;2023-02-21T08:51:02;99941.03;;;11.11;75.47
62011;BME280;47967;51.756;10.174;2023-02-21T08:55:05;99932.94;;;11.18;75.61
62011;BME280;47967;51.756;10.174;2023-02-21T08:59:08;99940.25;;;11.24;74.83
62011;BME280;47967;51.756;10.174;2023-02-21T09:03:11;99937.22;;;11.34;74.84
62011;BME280;47967;51.756;10.174;2023-02-21T09:07:17;99929.44;;;11.17;74.86
62011;BME280;47967;51.756;10.174;2023-02-21T09:11:19;99957.03;;;11.13;75.32
62011;BME280;47967;51.756;10.174;2023-02-21T09:15:22;99956.31;;;10.97;75.71
62011;BME280;47967;51.756;10.174;2023-02-21T09:19:24;99949.06;;;11.04;75.60
62011;BME280;47967;51.756;10.174;2023-02-21T09:23:29;99950.50;;;10.94;76.03
62011;BME280;47967;51.756;10.174;2023-02-21T09:27:33;99952.34;;;11.35;75.56
62011;BME280;47967;51.756;10.174;2023-02-21T09:31:38;99946.94;;;11.28;74.61
62011;BME280;47967;51.756;10.174;2023-02-21T09:35:40;99958.94;;;11.19;75.04
62011;BME280;47967;51.756;10.174;2023-02-21T09:39:44;99937.75;;;11.23;75.11
62011;BME280;47967;51.756;10.174;2023-02-21T09:43:49;99941.00;;;11.46;74.82
62011;BME280;47967;51.756;10.174;2023-02-21T09:47:57;99946.34;;;11.40;74.76
62011;BME280;47967;51.756;10.174;2023-02-21T09:52:00;99942.13;;;11.72;73.80
62011;BME280;47967;51.756;10.174;2023-02-21T09:56:07;99950.66;;;11.20;73.78
62011;BME280;47967;51.756;10.174;2023-02-21T10:00:17;99949.31;;;11.51;74.21
62011;BME280;47967;51.756;10.174;2023-02-21T10:04:29;99938.53;;;11.58;73.37
62011;BME280;47967;51.756;10.174;2023-02-21T10:08:37;99950.84;;;11.74;73.12
62011;BME280;47967;51.756;10.174;2023-02-21T10:12:48;99948.47;;;11.44;73.10
62011;BME280;47967;51.756;10.174;2023-02-21T10:16:59;99937.75;;;11.71;73.16
62011;BME280;47967;51.756;10.174;2023-02-21T10:21:11;99937.19;;;11.89;72.07
62011;BME280;47967;51.756;10.174;2023-02-21T10:25:21;99952.22;;;12.12;71.80
62011;BME280;47967;51.756;10.174;2023-02-21T10:29:32;99952.59;;;12.02;72.04
62011;BME280;47967;51.756;10.174;2023-02-21T10:33:38;99952.03;;;12.13;71.22
62011;BME280;47967;51.756;10.174;2023-02-21T10:37:43;99947.88;;;12.31;71.75
62011;BME280;47967;51.756;10.174;2023-02-21T10:41:48;99953.91;;;12.20;71.08
62011;BME280;47967;51.756;10.174;2023-02-21T10:45:58;99947.22;;;12.15;70.88
62011;BME280;47967;51.756;10.174;2023-02-21T10:50:04;99948.28;;;12.21;71.33
62011;BME280;47967;51.756;10.174;2023-02-21T10:54:19;99943.91;;;12.60;70.80
62011;BME280;47967;51.756;10.174;2023-02-21T10:58:26;99960.16;;;12.80;69.96
62011;BME280;47967;51.756;10.174;2023-02-21T11:02:32;99955.38;;;12.36;69.60
62011;BME280;47967;51.756;10.174;2023-02-21T11:06:36;99948.06;;;12.36;69.70
62011;BME280;47967;51.756;10.174;2023-02-21T11:10:42;99960.69;;;11.95;71.04
62011;BME280;47967;51.756;10.174;2023-02-21T11:19:24;99940.19;;;12.35;70.41
62011;BME280;47967;51.756;10.174;2023-02-21T11:23:29;99931.44;;;12.53;70.39
62011;BME280;47967;51.756;10.174;2023-02-21T11:27:34;99932.03;;;12.88;68.45
62011;BME280;47967;51.756;10.174;2023-02-21T11:31:38;99937.88;;;12.78;68.12
62011;BME280;47967;51.756;10.174;2023-02-21T11:35:45;99932.72;;;13.36;66.94
62011;BME280;47967;51.756;10.174;2023-02-21T11:39:50;99920.44;;;13.33;66.37
62011;BME280;47967;51.756;10.174;2023-02-21T11:43:54;99923.88;;;13.60;66.34
62011;BME280;47967;51.756;10.174;2023-02-21T11:48:00;99943.66;;;13.09;66.20
62011;BME280;47967;51.756;10.174;2023-02-21T11:52:08;99914.66;;;13.16;67.86
62011;BME280;47967;51.756;10.174;2023-02-21T11:56:19;99922.84;;;13.93;65.66
62011;BME280;47967;51.756;10.174;2023-02-21T12:00:27;99918.00;;;14.02;63.85
62011;BME280;47967;51.756;10.174;2023-02-21T12:04:46;99933.88;;;13.01;65.30
62011;BME280;47967;51.756;10.174;2023-02-21T12:09:00;99907.03;;;13.52;65.48
62011;BME280;47967;51.756;10.174;2023-02-21T12:13:11;99912.91;;;13.42;65.63
62011;BME280;47967;51.756;10.174;2023-02-21T12:17:47;99911.72;;;13.18;66.39
62011;BME280;47967;51.756;10.174;2023-02-21T12:22:00;99905.94;;;13.01;65.94
62011;BME280;47967;51.756;10.174;2023-02-21T12:26:16;99892.03;;;12.90;65.34
62011;BME280;47967;51.756;10.174;2023-02-21T12:30:29;99902.28;;;12.61;65.77
62011;BME280;47967;51.756;10.174;2023-02-21T12:34:46;99895.41;;;12.59;66.06
62011;BME280;47967;51.756;10.174;2023-02-21T12:39:07;99902.09;;;12.56;66.61
62011;BME280;47967;51.756;10.174;2023-02-21T12:43:27;99897.72;;;12.42;66.51
62011;BME280;47967;51.756;10.174;2023-02-21T12:47:37;99888.31;;;12.71;66.66
62011;BME280;47967;51.756;10.174;2023-02-21T12:51:48;99896.47;;;12.58;66.46
62011;BME280;47967;51.756;10.174;2023-02-21T12:55:58;99884.38;;;12.67;66.12
62011;BME280;47967;51.756;10.174;2023-02-21T13:00:13;99885.63;;;12.38;65.81
62011;BME280;47967;51.756;10.174;2023-02-21T13:04:26;99881.19;;;12.90;65.05
62011;BME280;47967;51.756;10.174;2023-02-21T13:08:35;99878.97;;;12.60;65.53
62011;BME280;47967;51.756;10.174;2023-02-21T13:12:48;99879.13;;;12.86;65.46
62011;BME280;47967;51.756;10.174;2023-02-21T13:16:53;99880.00;;;12.66;65.50
62011;BME280;47967;51.756;10.174;2023-02-21T13:20:59;99876.47;;;12.59;65.64
62011;BME280;47967;51.756;10.174;2023-02-21T13:25:09;99870.22;;;12.52;65.66
62011;BME280;47967;51.756;10.174;2023-02-21T13:29:19;99871.47;;;12.56;65.87
62011;BME280;47967;51.756;10.174;2023-02-21T13:33:34;99865.03;;;12.50;65.85
62011;BME280;47967;51.756;10.174;2023-02-21T13:37:43;99876.09;;;12.28;66.50
62011;BME280;47967;51.756;10.174;2023-02-21T13:41:49;99865.47;;;12.07;66.57
62011;BME280;47967;51.756;10.174;2023-02-21T13:45:52;99858.63;;;12.24;67.20
62011;BME280;47967;51.756;10.174;2023-02-21T13:49:57;99861.03;;;12.79;66.43
62011;BME280;47967;51.756;10.174;2023-02-21T13:54:08;99857.66;;;12.91;65.22
62011;BME280;47967;51.756;10.174;2023-02-21T13:58:42;99852.94;;;12.66;65.21
62011;BME280;47967;51.756;10.174;2023-02-21T14:02:53;99869.22;;;12.26;65.91
62011;BME280;47967;51.756;10.174;2023-02-21T14:06:57;99862.34;;;12.37;66.27
62011;BME280;47967;51.756;10.174;2023-02-21T14:11:11;99862.34;;;12.37;67.02
62011;BME280;47967;51.756;10.174;2023-02-21T14:15:15;99855.00;;;12.71;66.26
62011;BME280;47967;51.756;10.174;2023-02-21T14:19:22;99855.66;;;12.46;66.31
62011;BME280;47967;51.756;10.174;2023-02-21T14:23:40;99848.50;;;12.85;66.42
62011;BME280;47967;51.756;10.174;2023-02-21T14:27:44;99845.19;;;12.76;65.36
62011;BME280;47967;51.756;10.174;2023-02-21T14:31:50;99837.69;;;12.78;65.76
62011;BME280;47967;51.756;10.174;2023-02-21T14:35:59;99844.50;;;13.01;65.12
62011;BME280;47967;51.756;10.174;2023-02-21T14:40:20;99842.00;;;13.00;65.84
62011;BME280;47967;51.756;10.174;2023-02-21T14:44:29;99849.16;;;12.80;66.47
62011;BME280;47967;51.756;10.174;2023-02-21T14:48:49;99844.56;;;12.81;66.75
62011;BME280;47967;51.756;10.174;2023-02-21T14:53:21;99856.50;;;12.13;68.82
62011;BME280;47967;51.756;10.174;2023-02-21T14:57:53;99835.06;;;12.31;69.00
62011;BME280;47967;51.756;10.174;2023-02-21T15:02:09;99844.41;;;12.42;68.95
62011;BME280;47967;51.756;10.174;2023-02-21T15:06:18;99835.28;;;12.43;68.61
62011;BME280;47967;51.756;10.174;2023-02-21T15:10:23;99838.84;;;12.30;69.11
62011;BME280;47967;51.756;10.174;2023-02-21T15:14:29;99835.50;;;12.01;69.50
62011;BME280;47967;51.756;10.174;2023-02-21T15:18:37;99841.28;;;11.85;70.29
62011;BME280;47967;51.756;10.174;2023-02-21T15:22:39;99834.44;;;11.89;70.67
62011;BME280;47967;51.756;10.174;2023-02-21T15:26:42;99836.28;;;11.89;71.19
62011;BME280;47967;51.756;10.174;2023-02-21T15:30:56;99834.41;;;11.82;71.00
62011;BME280;47967;51.756;10.174;2023-02-21T15:35:02;99836.72;;;11.85;71.05
62011;BME280;47967;51.756;10.174;2023-02-21T15:39:10;99830.72;;;11.90;70.91
62011;BME280;47967;51.756;10.174;2023-02-21T15:43:26;99833.16;;;11.72;71.19
62011;BME280;47967;51.756;10.174;2023-02-21T15:47:32;99832.94;;;11.53;71.53
62011;BME280;47967;51.756;10.174;2023-02-21T15:51:37;99846.84;;;11.43;72.02
62011;BME280;47967;51.756;10.174;2023-02-21T15:55:41;99844.38;;;11.55;72.12
62011;BME280;47967;51.756;10.174;2023-02-21T15:59:45;99844.56;;;11.47;72.05
62011;BME280;47967;51.756;10.174;2023-02-21T16:03:49;99841.03;;;11.53;72.16
62011;BME280;47967;51.756;10.174;2023-02-21T16:07:52;99843.75;;;11.46;72.15
62011;BME280;47967;51.756;10.174;2023-02-21T16:11:56;99847.28;;;11.60;71.83
62011;BME280;47967;51.756;10.174;2023-02-21T16:16:00;99837.53;;;11.66;71.92
62011;BME280;47967;51.756;10.174;2023-02-21T16:20:13;99840.88;;;11.75;71.54
62011;BME280;47967;51.756;10.174;2023-02-21T16:24:29;99850.59;;;11.49;71.77
62011;BME280;47967;51.756;10.174;2023-02-21T16:28:32;99848.94;;;11.54;71.84
62011;BME280;47967;51.756;10.174;2023-02-21T16:32:34;99858.09;;;11.53;71.92
62011;BME280;47967;51.756;10.174;2023-02-21T16:36:40;99851.00;;;11.46;72.64
62011;BME280;47967;51.756;10.174;2023-02-21T16:40:43;99855.91;;;11.29;73.12
62011;BME280;47967;51.756;10.174;2023-02-21T16:44:46;99855.75;;;11.37;72.79
62011;BME280;47967;51.756;10.174;2023-02-21T16:48:51;99849.47;;;11.23;73.15
62011;BME280;47967;51.756;10.174;2023-02-21T16:52:56;99857.00;;;11.34;73.10
62011;BME280;47967;51.756;10.174;2023-02-21T16:56:58;99863.81;;;11.24;73.20
62011;BME280;47967;51.756;10.174;2023-02-21T17:01:02;99861.28;;;11.15;73.54
62011;BME280;47967;51.756;10.174;2023-02-21T17:05:07;99863.75;;;11.10;73.79
62011;BME280;47967;51.756;10.174;2023-02-21T17:09:18;99865.13;;;10.93;74.59
62011;BME280;47967;51.756;10.174;2023-02-21T17:13:21;99864.28;;;10.85;75.15
62011;BME280;47967;51.756;10.174;2023-02-21T17:17:23;99874.03;;;10.86;75.56
62011;BME280;47967;51.756;10.174;2023-02-21T17:21:26;99874.06;;;10.93;75.41
62011;BME280;47967;51.756;10.174;2023-02-21T17:25:30;99876.13;;;10.91;74.89
62011;BME280;47967;51.756;10.174;2023-02-21T17:29:35;99888.31;;;10.80;75.96
62011;BME280;47967;51.756;10.174;2023-02-21T17:33:39;99888.66;;;10.70;75.96
62011;BME280;47967;51.756;10.174;2023-02-21T17:37:42;99884.75;;;10.73;76.17
62011;BME280;47967;51.756;10.174;2023-02-21T17:41:46;99888.41;;;10.65;76.15
62011;BME280;47967;51.756;10.174;2023-02-21T17:45:49;99891.34;;;10.70;76.09
62011;BME280;47967;51.756;10.174;2023-02-21T17:49:52;99893.09;;;10.78;76.10
62011;BME280;47967;51.756;10.174;2023-02-21T17:53:54;99891.72;;;10.61;76.64
62011;BME280;47967;51.756;10.174;2023-02-21T17:57:59;99896.75;;;10.70;76.62
62011;BME280;47967;51.756;10.174;2023-02-21T18:02:02;99898.84;;;10.68;76.39
62011;BME280;47967;51.756;10.174;2023-02-21T18:06:05;99904.75;;;10.85;76.17
62011;BME280;47967;51.756;10.174;2023-02-21T18:10:08;99904.53;;;10.87;75.83
62011;BME280;47967;51.756;10.174;2023-02-21T18:14:12;99909.91;;;10.80;76.33
62011;BME280;47967;51.756;10.174;2023-02-21T18:18:14;99912.22;;;10.83;76.15
62011;BME280;47967;51.756;10.174;2023-02-21T18:22:17;99913.44;;;10.81;76.10
62011;BME280;47967;51.756;10.174;2023-02-21T18:26:20;99909.66;;;10.75;76.61
62011;BME280;47967;51.756;10.174;2023-02-21T18:30:24;99912.31;;;10.68;77.07
62011;BME280;47967;51.756;10.174;2023-02-21T18:34:27;99914.63;;;10.71;76.80
62011;BME280;47967;51.756;10.174;2023-02-21T18:38:29;99906.28;;;10.66;77.30
62011;BME280;47967;51.756;10.174;2023-02-21T18:42:33;99912.25;;;10.62;77.39
62011;BME280;47967;51.756;10.174;2023-02-21T18:46:37;99909.91;;;10.52;77.50
62011;BME280;47967;51.756;10.174;2023-02-21T18:50:44;99912.44;;;10.53;77.96
62011;BME280;47967;51.756;10.174;2023-02-21T18:54:48;99914.25;;;10.46;78.17
62011;BME280;47967;51.756;10.174;2023-02-21T18:58:51;99920.59;;;10.38;78.25
62011;BME280;47967;51.756;10.174;2023-02-21T19:02:55;99919.44;;;10.48;78.47
62011;BME280;47967;51.756;10.174;2023-02-21T19:06:58;99912.78;;;10.44;78.61
62011;BME280;47967;51.756;10.174;2023-02-21T19:11:00;99915.19;;;10.38;78.98
62011;BME280;47967;51.756;10.174;2023-02-21T19:15:04;99913.16;;;10.40;78.68
62011;BME280;47967;51.756;10.174;2023-02-21T19:19:07;99914.41;;;10.45;78.79
62011;BME280;47967;51.756;10.174;2023-02-21T19:23:10;99915.72;;;10.49;78.66
62011;BME280;47967;51.756;10.174;2023-02-21T19:27:18;99915.06;;;10.47;79.18
62011;BME280;47967;51.756;10.174;2023-02-21T19:31:24;99914.47;;;10.30;79.54
62011;BME280;47967;51.756;10.174;2023-02-21T19:35:30;99912.88;;;10.35;79.63
62011;BME280;47967;51.756;10.174;2023-02-21T19:39:32;99916.88;;;10.39;79.39
62011;BME280;47967;51.756;10.174;2023-02-21T19:43:36;99915.03;;;10.40;79.28
62011;BME280;47967;51.756;10.174;2023-02-21T19:47:39;99921.13;;;10.49;78.75
62011;BME280;47967;51.756;10.174;2023-02-21T19:51:44;99916.97;;;10.53;78.61
62011;BME280;47967;51.756;10.174;2023-02-21T19:55:46;99922.59;;;10.51;78.33
62011;BME280;47967;51.756;10.174;2023-02-21T19:59:49;99917.56;;;10.48;78.23
62011;BME280;47967;51.756;10.174;2023-02-21T20:03:52;99920.25;;;10.48;78.21
62011;BME280;47967;51.756;10.174;2023-02-21T20:07:56;99918.19;;;10.44;78.62
62011;BME280;47967;51.756;10.174;2023-02-21T20:11:59;99915.72;;;10.27;79.17
62011;BME280;47967;51.756;10.174;2023-02-21T20:16:01;99911.75;;;10.23;79.46
62011;BME280;47967;51.756;10.174;2023-02-21T20:20:05;99913.84;;;10.28;79.74
62011;BME280;47967;51.756;10.174;2023-02-21T20:24:13;99917.91;;;10.38;79.24
62011;BME280;47967;51.756;10.174;2023-02-21T20:28:20;99912.94;;;10.42;79.13
62011;BME280;47967;51.756;10.174;2023-02-21T20:32:23;99918.28;;;10.35;79.21
62011;BME280;47967;51.756;10.174;2023-02-21T20:36:27;99909.75;;;10.32;79.45
62011;BME280;47967;51.756;10.174;2023-02-21T20:40:32;99914.72;;;10.35;79.87
62011;BME280;47967;51.756;10.174;2023-02-21T20:44:35;99907.63;;;10.27;79.72
62011;BME280;47967;51.756;10.174;2023-02-21T20:48:39;99911.34;;;10.26;79.65
62011;BME280;47967;51.756;10.174;2023-02-21T20:52:41;99905.31;;;10.24;79.66
62011;BME280;47967;51.756;10.174;2023-02-21T20:56:46;99899.47;;;10.20;79.86
62011;BME280;47967;51.756;10.174;2023-02-21T21:00:50;99892.56;;;10.11;80.19
62011;BME280;47967;51.756;10.174;2023-02-21T21:04:53;99895.81;;;10.06;80.47
62011;BME280;47967;51.756;10.174;2023-02-21T21:08:56;99898.19;;;10.16;80.27
62011;BME280;47967;51.756;10.174;2023-02-21T21:13:00;99901.25;;;10.35;79.78
62011;BME280;47967;51.756;10.174;2023-02-21T21:17:03;99897.63;;;10.43;79.42
62011;BME280;47967;51.756;10.174;2023-02-21T21:21:06;99898.00;;;10.39;79.19
62011;BME280;47967;51.756;10.174;2023-02-21T21:25:09;99888.75;;;10.27;79.63
62011;BME280;47967;51.756;10.174;2023-02-21T21:29:13;99889.84;;;10.33;79.82
62011;BME280;47967;51.756;10.174;2023-02-21T21:33:16;99892.59;;;10.18;80.09
62011;BME280;47967;51.756;10.174;2023-02-21T21:37:21;99892.47;;;10.04;80.70
62011;BME280;47967;51.756;10.174;2023-02-21T21:41:24;99890.75;;;10.18;80.39
62011;BME280;47967;51.756;10.174;2023-02-21T21:45:28;99896.00;;;10.27;80.09
62011;BME280;47967;51.756;10.174;2023-02-21T21:49:31;99895.59;;;10.30;80.29
62011;BME280;47967;51.756;10.174;2023-02-21T21:53:35;99896.75;;;10.20;79.92
62011;BME280;47967;51.756;10.174;2023-02-21T21:57:40;99891.88;;;10.02;80.71
